Time;durP1;ratioP1;P1;durP2;ratioP2;P2;SDS_P1;SDS_P2;PMS_P1;PMS_P2;Temp;Humidity;BMP_temperature;BMP_pressure;BME280_temperature;BME280_humidity;BME280_pressure;Samples;Min_cycle;Max_cycle;Signal;HPM_P1;HPM_P2
2022/06/29 00:00:12;;;;;;;3.67;0.40;;;19.00;99.90;;;;;;5025287;28;20060;-44
2022/06/29 00:02:38;;;;;;;3.70;0.47;;;19.00;99.90;;;;;;5026162;28;20044;-44
2022/06/29 00:05:05;;;;;;;2.20;0.50;;;18.90;99.90;;;;;;5021104;28;20284;-44
2022/06/29 00:07:31;;;;;;;2.00;0.47;;;18.90;99.90;;;;;;5028818;28;20503;-44
2022/06/29 00:09:57;;;;;;;2.40;0.57;;;18.90;99.90;;;;;;5026321;28;20041;-43
2022/06/29 00:12:23;;;;;;;3.45;0.50;;;18.90;99.90;;;;;;5025471;28;20040;-44
2022/06/29 00:14:48;;;;;;;1.90;0.40;;;18.90;99.90;;;;;;5025952;28;20050;-44
2022/06/29 00:17:14;;;;;;;3.13;0.50;;;18.90;99.90;;;;;;5024167;28;20064;-43
2022/06/29 00:19:40;;;;;;;1.95;0.40;;;18.90;99.90;;;;;;5026542;28;20067;-45
2022/06/29 00:22:07;;;;;;;2.95;0.50;;;18.90;99.90;;;;;;5026422;28;20869;-47
2022/06/29 00:24:34;;;;;;;2.85;0.40;;;18.90;99.90;;;;;;5025993;28;20063;-43
2022/06/29 00:27:01;;;;;;;2.42;0.40;;;18.80;99.90;;;;;;5027398;28;20488;-45
2022/06/29 00:29:27;;;;;;;4.20;0.80;;;18.80;99.90;;;;;;5026170;28;20132;-43
2022/06/29 00:31:53;;;;;;;2.63;0.40;;;18.80;99.90;;;;;;5026449;28;20037;-44
2022/06/29 00:34:19;;;;;;;4.00;0.50;;;18.80;99.90;;;;;;5023961;28;20053;-43
2022/06/29 00:36:45;;;;;;;3.42;0.50;;;18.80;99.90;;;;;;5023622;28;20076;-45
2022/06/29 00:39:13;;;;;;;3.40;0.40;;;18.70;99.90;;;;;;5024739;28;20045;-43
2022/06/29 00:41:41;;;;;;;3.17;0.60;;;18.70;99.90;;;;;;5024335;28;20037;-44
2022/06/29 00:44:09;;;;;;;3.63;0.68;;;18.70;99.90;;;;;;5023514;28;20045;-43
2022/06/29 00:46:36;;;;;;;2.53;0.60;;;18.60;99.90;;;;;;5027651;28;20037;-44
2022/06/29 00:49:02;;;;;;;2.88;0.40;;;18.60;99.90;;;;;;5025572;28;20041;-45
2022/06/29 00:51:33;;;;;;;1.30;0.38;;;18.60;99.90;;;;;;5026408;28;20441;-43
2022/06/29 00:54:03;;;;;;;2.97;0.80;;;18.50;99.90;;;;;;5027025;28;20484;-44
2022/06/29 00:56:29;;;;;;;1.23;0.60;;;18.50;99.90;;;;;;5028343;28;20044;-44
2022/06/29 00:58:57;;;;;;;3.53;0.60;;;18.50;99.90;;;;;;5025299;28;20120;-43
2022/06/29 01:01:25;;;;;;;2.33;0.60;;;18.50;99.90;;;;;;5025562;28;20045;-45
2022/06/29 01:03:50;;;;;;;2.92;0.65;;;18.50;99.90;;;;;;5024449;28;20041;-44
2022/06/29 01:06:16;;;;;;;4.38;0.75;;;18.50;99.90;;;;;;5011652;28;20055;-44
2022/06/29 01:08:42;;;;;;;3.75;0.60;;;18.50;99.90;;;;;;5025004;28;20512;-43
2022/06/29 01:11:07;;;;;;;3.83;0.85;;;18.40;99.90;;;;;;5025973;28;20459;-43
2022/06/29 01:13:33;;;;;;;2.15;0.80;;;18.40;99.90;;;;;;5006324;28;20526;-44
2022/06/29 01:15:59;;;;;;;3.38;0.60;;;18.40;99.90;;;;;;5023680;28;20099;-44
2022/06/29 01:18:24;;;;;;;4.32;0.98;;;18.40;99.90;;;;;;5026097;28;20091;-45
2022/06/29 01:20:50;;;;;;;3.38;0.75;;;18.40;99.90;;;;;;4991912;28;20045;-44
2022/06/29 01:23:16;;;;;;;3.42;0.70;;;18.40;99.90;;;;;;5024605;28;20382;-45
2022/06/29 01:25:42;;;;;;;3.72;0.80;;;18.40;99.90;;;;;;5033375;28;20165;-43
2022/06/29 01:28:07;;;;;;;3.50;1.10;;;18.40;99.90;;;;;;5023575;28;20045;-46
2022/06/29 01:30:33;;;;;;;3.47;0.93;;;18.40;99.90;;;;;;5024349;28;20045;-46
2022/06/29 01:32:59;;;;;;;2.17;1.13;;;18.40;99.90;;;;;;5024534;28;20101;-46
2022/06/29 01:35:24;;;;;;;3.40;1.30;;;18.40;99.90;;;;;;5021520;28;20156;-46
2022/06/29 01:37:50;;;;;;;3.80;1.30;;;18.40;99.90;;;;;;5026813;28;20120;-46
2022/06/29 01:40:16;;;;;;;2.83;1.10;;;18.40;99.90;;;;;;5023402;28;20048;-48
2022/06/29 01:42:41;;;;;;;4.88;1.35;;;18.40;99.90;;;;;;5024361;28;20037;-46
2022/06/29 01:45:07;;;;;;;2.13;1.38;;;18.40;99.90;;;;;;5022150;28;20495;-45
2022/06/29 01:47:33;;;;;;;5.45;1.52;;;18.40;99.90;;;;;;5025815;28;20138;-46
2022/06/29 01:49:59;;;;;;;3.55;1.30;;;18.40;99.90;;;;;;5023369;28;20272;-47
2022/06/29 01:52:25;;;;;;;2.63;1.05;;;18.40;99.90;;;;;;5025204;28;20084;-46
2022/06/29 01:54:51;;;;;;;5.60;1.60;;;18.40;99.90;;;;;;5023676;28;20775;-44
2022/06/29 01:57:16;;;;;;;3.28;1.55;;;18.40;99.90;;;;;;5024723;28;20091;-45
2022/06/29 01:59:42;;;;;;;4.75;1.30;;;18.40;99.90;;;;;;5007635;28;20052;-46
2022/06/29 02:02:08;;;;;;;2.17;1.20;;;18.40;99.90;;;;;;5024366;28;20593;-46
2022/06/29 02:04:33;;;;;;;3.33;1.58;;;18.40;99.90;;;;;;5024765;28;20077;-45
2022/06/29 02:06:59;;;;;;;2.22;1.70;;;18.40;99.90;;;;;;5024103;28;20034;-46
2022/06/29 02:09:25;;;;;;;4.22;1.63;;;18.40;99.90;;;;;;5024632;28;20128;-46
2022/06/29 02:11:51;;;;;;;3.33;1.40;;;18.40;99.90;;;;;;5033228;28;20036;-45
2022/06/29 02:14:17;;;;;;;4.22;1.38;;;18.40;99.90;;;;;;5028537;28;20067;-46
2022/06/29 02:16:42;;;;;;;3.50;1.20;;;18.40;99.90;;;;;;5028895;28;20483;-47
2022/06/29 02:19:08;;;;;;;4.05;1.73;;;18.40;99.90;;;;;;5028477;28;20044;-48
2022/06/29 02:21:34;;;;;;;4.82;1.70;;;18.40;99.90;;;;;;5023523;28;20497;-45
2022/06/29 02:23:59;;;;;;;5.38;1.73;;;18.40;99.90;;;;;;5040973;28;20071;-46
2022/06/29 02:26:25;;;;;;;4.47;1.70;;;18.40;99.90;;;;;;5028472;28;20049;-47
2022/06/29 02:28:51;;;;;;;3.55;1.83;;;18.40;99.90;;;;;;5028364;28;20045;-45
2022/06/29 02:36:45;;;;;;;3.00;1.95;;;18.30;99.90;;;;;;5029686;28;20045;-46
2022/06/29 02:39:10;;;;;;;2.08;1.67;;;18.40;99.90;;;;;;5029620;28;20129;-46
2022/06/29 02:41:36;;;;;;;2.85;1.88;;;18.30;99.90;;;;;;5040418;28;20041;-46
2022/06/29 02:44:02;;;;;;;4.35;2.50;;;18.30;99.90;;;;;;5027386;28;20030;-45
2022/06/29 02:46:28;;;;;;;4.93;1.80;;;18.30;99.90;;;;;;5025063;28;20695;-47
2022/06/29 02:48:53;;;;;;;2.22;1.77;;;18.30;99.90;;;;;;5027616;28;20546;-49
2022/06/29 02:51:19;;;;;;;3.40;1.92;;;18.30;99.90;;;;;;5027218;28;20045;-46
2022/06/29 02:53:45;;;;;;;2.90;2.00;;;18.30;99.90;;;;;;5010820;28;20045;-48
2022/06/29 02:56:10;;;;;;;4.18;2.13;;;18.30;99.90;;;;;;5024501;28;20056;-45
2022/06/29 02:58:36;;;;;;;6.25;2.00;;;18.30;99.90;;;;;;5009145;28;20119;-48
2022/06/29 03:01:02;;;;;;;5.90;2.38;;;18.30;99.90;;;;;;5025345;28;20048;-45
2022/06/29 03:03:28;;;;;;;4.32;2.20;;;18.30;99.90;;;;;;5026020;28;20411;-47
2022/06/29 03:05:53;;;;;;;3.20;1.90;;;18.30;99.90;;;;;;5028506;28;20151;-46
2022/06/29 03:08:19;;;;;;;3.97;2.58;;;18.30;99.90;;;;;;5026575;28;20041;-46
2022/06/29 03:10:45;;;;;;;4.40;2.00;;;18.30;99.90;;;;;;5024631;28;20037;-48
2022/06/29 03:13:11;;;;;;;2.08;1.75;;;18.30;99.90;;;;;;5028555;28;20036;-45
2022/06/29 03:15:36;;;;;;;2.83;2.15;;;18.30;99.90;;;;;;5027784;28;20108;-46
2022/06/29 03:18:02;;;;;;;4.50;1.85;;;18.30;99.90;;;;;;5026060;28;20448;-50
2022/06/29 03:20:28;;;;;;;3.03;1.80;;;18.30;99.90;;;;;;5030501;28;20042;-46
2022/06/29 03:22:54;;;;;;;2.58;2.00;;;18.30;99.90;;;;;;5026717;28;20033;-45
2022/06/29 03:25:19;;;;;;;3.17;2.00;;;18.30;99.90;;;;;;5024779;28;20043;-46
2022/06/29 03:27:45;;;;;;;3.63;1.70;;;18.30;99.90;;;;;;5026520;28;20053;-46
2022/06/29 03:30:11;;;;;;;4.05;2.35;;;18.30;99.90;;;;;;5027185;28;20076;-46
2022/06/29 03:32:37;;;;;;;2.72;1.70;;;18.30;99.90;;;;;;5024879;28;20041;-49
2022/06/29 03:35:03;;;;;;;3.13;2.03;;;18.30;99.90;;;;;;5025584;28;20049;-46
2022/06/29 03:37:29;;;;;;;3.80;2.03;;;18.30;99.90;;;;;;5026218;28;20545;-46
2022/06/29 03:39:54;;;;;;;3.88;2.30;;;18.30;99.90;;;;;;5025998;28;20076;-46
2022/06/29 03:42:20;;;;;;;3.90;1.80;;;18.30;99.90;;;;;;5024046;28;20076;-49
2022/06/29 03:44:46;;;;;;;2.85;1.90;;;18.30;99.90;;;;;;5025922;28;20396;-46
2022/06/29 03:47:12;;;;;;;4.85;1.88;;;18.30;99.90;;;;;;5029584;28;20041;-46
2022/06/29 03:49:38;;;;;;;2.70;2.17;;;18.30;99.90;;;;;;5025199;28;20161;-45
2022/06/29 03:52:04;;;;;;;4.85;1.90;;;18.30;99.90;;;;;;5024518;28;20060;-47
2022/06/29 03:54:29;;;;;;;2.63;1.70;;;18.30;99.90;;;;;;5040225;28;20044;-46
2022/06/29 03:56:56;;;;;;;4.05;1.80;;;18.30;99.90;;;;;;5024885;28;20498;-46
2022/06/29 03:59:22;;;;;;;3.10;1.55;;;18.30;99.90;;;;;;5025969;28;20184;-45
2022/06/29 04:01:47;;;;;;;4.95;1.90;;;18.30;99.90;;;;;;5025774;28;20064;-46
2022/06/29 04:04:13;;;;;;;5.57;2.17;;;18.30;99.90;;;;;;5038889;28;20053;-45
2022/06/29 04:06:39;;;;;;;3.88;2.20;;;18.30;99.90;;;;;;5008498;28;20045;-45
2022/06/29 04:09:05;;;;;;;2.35;2.00;;;18.30;99.90;;;;;;5027242;28;20037;-46
2022/06/29 04:11:49;;;;;;;2.50;2.00;;;18.30;99.90;;;;;;5028952;28;20522;-46
2022/06/29 04:14:16;;;;;;;3.70;2.10;;;18.30;99.90;;;;;;5024281;28;20084;-46
2022/06/29 04:16:42;;;;;;;4.00;2.10;;;18.30;99.90;;;;;;5022913;28;20060;-48
2022/06/29 04:19:07;;;;;;;3.75;1.90;;;18.30;99.90;;;;;;5024539;28;20034;-45
2022/06/29 04:21:33;;;;;;;4.45;2.38;;;18.30;99.90;;;;;;5024997;28;20117;-45
2022/06/29 04:23:59;;;;;;;2.35;1.90;;;18.30;99.90;;;;;;5025900;28;20514;-46
2022/06/29 04:26:24;;;;;;;5.93;2.35;;;18.30;99.90;;;;;;5025846;28;20108;-46
2022/06/29 04:28:50;;;;;;;2.78;2.05;;;18.30;99.90;;;;;;5026180;28;20040;-45
2022/06/29 04:31:16;;;;;;;3.70;2.38;;;18.30;99.90;;;;;;5026894;28;20041;-46
2022/06/29 04:33:41;;;;;;;4.45;2.78;;;18.40;99.90;;;;;;5019551;28;20128;-45
2022/06/29 04:36:07;;;;;;;5.40;2.50;;;18.40;99.90;;;;;;5025383;28;20498;-46
2022/06/29 04:38:33;;;;;;;4.05;1.92;;;18.40;99.90;;;;;;5023720;28;20042;-45
2022/06/29 04:40:59;;;;;;;2.33;2.13;;;18.40;99.90;;;;;;5008816;28;20033;-46
2022/06/29 04:43:29;;;;;;;3.13;2.05;;;18.40;99.90;;;;;;5024683;28;20744;-46
2022/06/29 04:48:40;;;;;;;2.50;1.80;;;18.40;99.90;;;;;;5025641;28;20343;-46
2022/06/29 04:51:06;;;;;;;4.85;2.05;;;18.40;99.90;;;;;;5006799;28;20059;-45
2022/06/29 04:53:32;;;;;;;2.58;1.83;;;18.50;99.90;;;;;;5027609;28;20041;-46
2022/06/29 04:55:57;;;;;;;3.65;2.10;;;18.50;99.90;;;;;;5025803;28;20050;-46
2022/06/29 04:58:23;;;;;;;3.28;2.60;;;18.50;99.90;;;;;;5025129;28;20037;-45
2022/06/29 05:00:48;;;;;;;3.65;2.28;;;18.50;99.90;;;;;;5024696;28;20124;-45
2022/06/29 05:03:14;;;;;;;2.95;2.05;;;18.50;99.90;;;;;;5024768;28;20509;-48
2022/06/29 05:05:40;;;;;;;3.85;2.40;;;18.50;99.90;;;;;;5026382;28;20045;-49
2022/06/29 05:08:06;;;;;;;4.15;2.10;;;18.60;99.90;;;;;;5007057;28;20055;-46
2022/06/29 05:10:31;;;;;;;3.05;2.30;;;18.60;99.90;;;;;;5024275;28;20037;-46
2022/06/29 05:12:58;;;;;;;3.38;2.08;;;18.60;99.90;;;;;;5025275;28;20033;-46
2022/06/29 05:15:23;;;;;;;2.22;2.03;;;18.60;99.90;;;;;;5030505;28;20083;-47
2022/06/29 05:17:49;;;;;;;3.28;2.50;;;18.60;99.90;;;;;;5032682;28;20060;-47
2022/06/29 05:20:15;;;;;;;3.65;2.22;;;18.60;99.90;;;;;;5031402;28;20041;-45
2022/06/29 05:22:41;;;;;;;4.13;2.20;;;18.60;99.90;;;;;;5033526;28;20029;-44
2022/06/29 05:25:08;;;;;;;2.90;1.95;;;18.70;99.90;;;;;;5033726;28;20510;-44
2022/06/29 05:27:34;;;;;;;3.63;2.30;;;18.80;99.90;;;;;;5035747;28;20115;-45
2022/06/29 05:29:59;;;;;;;6.63;2.40;;;19.10;99.90;;;;;;5033720;28;20069;-46
2022/06/29 05:32:25;;;;;;;3.17;2.30;;;19.20;99.90;;;;;;5012759;28;20876;-49
2022/06/29 05:34:51;;;;;;;3.78;2.17;;;19.30;99.90;;;;;;5026582;28;20041;-47
2022/06/29 05:37:17;;;;;;;2.47;1.98;;;19.30;99.90;;;;;;5027895;28;20124;-45
2022/06/29 05:39:44;;;;;;;3.15;2.60;;;19.30;99.90;;;;;;5027766;28;20110;-48
2022/06/29 05:42:12;;;;;;;3.30;2.20;;;19.30;99.90;;;;;;5026031;28;20037;-49
2022/06/29 05:44:38;;;;;;;2.88;2.17;;;19.30;99.90;;;;;;5011032;28;20053;-45
2022/06/29 05:47:04;;;;;;;3.58;2.10;;;19.30;99.90;;;;;;5018449;28;20053;-43
2022/06/29 05:49:30;;;;;;;3.63;1.92;;;19.30;99.90;;;;;;5015665;28;20694;-46
2022/06/29 05:51:56;;;;;;;3.15;1.90;;;19.30;99.90;;;;;;5031380;28;20049;-46
2022/06/29 05:54:22;;;;;;;3.78;2.28;;;19.20;99.90;;;;;;4997031;28;20049;-46
2022/06/29 05:56:47;;;;;;;3.08;2.20;;;19.20;99.90;;;;;;5032894;28;20029;-43
2022/06/29 05:59:13;;;;;;;2.65;2.17;;;19.30;99.90;;;;;;5031474;28;20068;-44
2022/06/29 06:01:39;;;;;;;2.28;2.00;;;19.20;99.90;;;;;;5012096;28;20052;-44
2022/06/29 06:04:04;;;;;;;4.03;2.30;;;19.20;99.90;;;;;;5030333;28;20054;-41
2022/06/29 06:06:30;;;;;;;3.10;1.65;;;19.20;99.90;;;;;;5016441;28;20075;-45
2022/06/29 06:08:56;;;;;;;3.95;2.10;;;19.30;99.90;;;;;;5028430;28;20037;-44
2022/06/29 06:11:21;;;;;;;4.65;1.83;;;19.30;99.90;;;;;;5027644;28;20129;-44
2022/06/29 06:13:47;;;;;;;4.30;2.00;;;19.30;99.90;;;;;;5046800;28;20379;-45
2022/06/29 06:16:13;;;;;;;3.50;2.33;;;19.40;99.90;;;;;;5046519;28;20057;-44
2022/06/29 06:18:39;;;;;;;3.88;2.25;;;19.40;99.90;;;;;;5042944;28;20407;-44
2022/06/29 06:21:04;;;;;;;3.03;1.52;;;19.50;99.90;;;;;;5025933;28;20052;-43
2022/06/29 06:23:30;;;;;;;3.75;1.77;;;19.50;99.90;;;;;;5026157;28;20128;-43
2022/06/29 06:25:56;;;;;;;4.38;1.60;;;19.60;99.90;;;;;;5045084;28;20136;-42
2022/06/29 06:28:22;;;;;;;3.80;1.50;;;19.60;99.90;;;;;;5047168;28;20316;-44
2022/06/29 06:30:47;;;;;;;3.80;1.40;;;19.70;99.90;;;;;;5027097;28;20041;-43
2022/06/29 06:33:13;;;;;;;2.97;1.33;;;19.70;99.90;;;;;;5040656;28;20119;-47
2022/06/29 06:35:39;;;;;;;2.90;1.60;;;19.80;99.90;;;;;;5010746;28;20056;-46
2022/06/29 06:38:04;;;;;;;5.28;1.60;;;19.80;99.90;;;;;;5011225;28;20784;-43
2022/06/29 06:41:31;;;;;;;3.88;1.50;;;19.90;99.90;;;;;;5030893;28;20271;-42
2022/06/29 06:43:25;;;;;;;2.85;1.65;;;19.90;99.90;;;;;;5050737;28;20091;-44
2022/06/29 06:45:51;;;;;;;2.83;1.70;;;19.90;99.90;;;;;;5035696;28;20134;-44
2022/06/29 06:48:16;;;;;;;4.65;2.05;;;20.00;99.90;;;;;;5026251;28;20080;-43
2022/06/29 06:50:42;;;;;;;2.65;1.80;;;20.00;99.90;;;;;;5042589;28;20060;-44
2022/06/29 06:53:08;;;;;;;3.30;1.13;;;20.10;99.90;;;;;;5047396;28;20044;-43
2022/06/29 06:55:33;;;;;;;3.70;1.60;;;20.10;99.90;;;;;;5039901;28;20049;-43
2022/06/29 06:58:01;;;;;;;2.72;1.75;;;20.20;99.90;;;;;;5029628;28;20105;-46
2022/06/29 07:00:27;;;;;;;2.67;1.35;;;20.20;99.90;;;;;;5031232;28;20053;-46
2022/06/29 07:02:53;;;;;;;2.22;1.17;;;20.30;99.90;;;;;;5030210;28;20518;-43
2022/06/29 07:05:19;;;;;;;3.00;1.30;;;20.30;99.90;;;;;;5030740;28;20763;-44
2022/06/29 07:07:45;;;;;;;3.85;1.20;;;20.40;99.90;;;;;;5010615;28;20352;-44
2022/06/29 07:10:11;;;;;;;3.60;1.50;;;20.40;99.90;;;;;;5028912;28;20037;-43
2022/06/29 07:12:37;;;;;;;4.95;1.38;;;20.50;99.90;;;;;;5027665;28;20060;-45
2022/06/29 07:15:03;;;;;;;2.63;1.23;;;20.50;99.90;;;;;;5032016;28;20048;-45
2022/06/29 07:17:29;;;;;;;2.22;1.08;;;20.60;99.90;;;;;;5031160;28;20056;-44
2022/06/29 07:19:54;;;;;;;1.90;1.67;;;20.60;99.90;;;;;;5027844;28;20442;-44
2022/06/29 07:22:20;;;;;;;2.40;1.17;;;20.70;99.90;;;;;;5031173;28;20574;-43
2022/06/29 07:24:46;;;;;;;2.90;1.10;;;20.80;99.90;;;;;;5029391;28;20483;-43
2022/06/29 07:27:12;;;;;;;2.65;1.02;;;20.80;99.90;;;;;;5029065;28;20110;-43
2022/06/29 07:29:38;;;;;;;1.88;1.17;;;20.80;99.90;;;;;;5029705;28;20045;-47
2022/06/29 07:32:05;;;;;;;3.47;1.33;;;20.90;99.90;;;;;;5032345;28;20029;-43
2022/06/29 07:34:30;;;;;;;3.95;1.30;;;21.00;99.90;;;;;;5033054;28;20049;-45
2022/06/29 07:36:56;;;;;;;2.55;1.33;;;21.10;99.90;;;;;;5031640;28;20040;-43
2022/06/29 07:39:22;;;;;;;2.45;1.38;;;21.10;99.90;;;;;;5011077;28;20076;-46
2022/06/29 07:41:47;;;;;;;2.97;1.45;;;21.10;99.90;;;;;;5031789;28;20131;-44
2022/06/29 07:44:13;;;;;;;2.35;1.00;;;21.20;99.90;;;;;;5025291;28;20069;-44
2022/06/29 07:46:39;;;;;;;2.90;1.10;;;21.20;99.90;;;;;;5028819;28;20167;-45
2022/06/29 07:49:05;;;;;;;1.70;0.70;;;21.30;99.90;;;;;;5027612;28;20045;-43
2022/06/29 07:51:30;;;;;;;3.33;1.00;;;21.40;99.90;;;;;;5032797;28;20037;-44
2022/06/29 07:53:56;;;;;;;5.65;1.10;;;21.40;99.90;;;;;;5028354;28;20450;-43
2022/06/29 07:56:22;;;;;;;4.80;0.88;;;21.50;99.90;;;;;;5029558;28;20077;-45
2022/06/29 07:58:47;;;;;;;3.05;0.65;;;21.50;99.90;;;;;;5027949;28;20418;-44
2022/06/29 08:01:13;;;;;;;3.83;1.00;;;21.60;99.90;;;;;;5031130;28;20127;-43
2022/06/29 08:03:40;;;;;;;4.18;1.00;;;21.70;99.90;;;;;;5027116;28;20479;-45
2022/06/29 08:06:05;;;;;;;4.13;0.80;;;21.70;99.90;;;;;;5028926;28;20053;-47
2022/06/29 08:08:31;;;;;;;5.55;0.90;;;21.80;99.90;;;;;;5026147;28;20540;-45
2022/06/29 08:10:57;;;;;;;2.72;1.00;;;21.80;99.90;;;;;;5028332;28;20775;-44
2022/06/29 08:13:24;;;;;;;3.08;1.00;;;21.90;99.90;;;;;;5028428;28;20050;-43
2022/06/29 08:15:51;;;;;;;2.55;0.90;;;21.90;99.90;;;;;;5026719;28;20410;-45
2022/06/29 08:18:17;;;;;;;2.63;1.20;;;22.00;99.90;;;;;;5027499;28;20060;-47
2022/06/29 08:20:43;;;;;;;1.48;0.90;;;22.10;99.90;;;;;;5028124;28;20044;-43
2022/06/29 08:23:09;;;;;;;2.45;0.60;;;22.10;99.90;;;;;;5029791;28;20045;-46
2022/06/29 08:25:35;;;;;;;6.25;1.10;;;22.20;99.90;;;;;;5027911;28;20060;-44
2022/06/29 08:28:02;;;;;;;4.80;0.90;;;22.30;99.90;;;;;;5028968;28;20038;-43
2022/06/29 08:30:28;;;;;;;3.95;1.10;;;22.40;99.90;;;;;;5027743;28;20450;-44
2022/06/29 08:32:54;;;;;;;4.30;1.10;;;22.40;99.90;;;;;;5031124;28;20068;-44
2022/06/29 08:35:19;;;;;;;6.22;0.95;;;22.50;99.90;;;;;;5028615;28;20496;-44
2022/06/29 08:37:47;;;;;;;4.95;1.20;;;22.50;99.90;;;;;;5031025;28;20400;-43
2022/06/29 08:40:15;;;;;;;2.45;1.30;;;22.60;99.90;;;;;;5028309;28;20562;-45
2022/06/29 08:42:41;;;;;;;4.60;0.90;;;22.70;99.90;;;;;;5040119;28;20076;-43
2022/06/29 08:45:09;;;;;;;3.55;1.25;;;22.70;99.90;;;;;;5031691;28;20044;-45
2022/06/29 08:47:35;;;;;;;4.05;1.50;;;22.80;99.90;;;;;;5027632;28;20055;-44
2022/06/29 08:50:09;;;;;;;4.63;1.33;;;22.90;99.90;;;;;;5006413;28;20045;-45
2022/06/29 08:52:36;;;;;;;2.05;1.17;;;22.90;99.90;;;;;;5036347;28;20102;-44
2022/06/29 08:55:04;;;;;;;2.03;1.10;;;23.00;99.90;;;;;;5034938;28;20041;-46
2022/06/29 08:57:31;;;;;;;2.63;1.10;;;23.10;99.90;;;;;;5037476;28;20442;-43
2022/06/29 08:59:57;;;;;;;3.03;1.23;;;23.10;99.90;;;;;;5036575;28;20036;-44
2022/06/29 09:02:23;;;;;;;2.72;1.40;;;23.20;99.90;;;;;;5035874;28;20038;-46
2022/06/29 09:04:49;;;;;;;3.83;1.13;;;23.20;99.90;;;;;;5039109;28;20029;-44
2022/06/29 09:07:15;;;;;;;3.47;0.88;;;23.30;99.90;;;;;;5036722;28;20045;-44
2022/06/29 09:10:05;;;;;;;3.60;0.73;;;23.40;99.90;;;;;;5035567;28;20033;-44
2022/06/29 09:12:34;;;;;;;3.80;0.80;;;23.40;99.90;;;;;;5037061;28;20127;-44
2022/06/29 09:15:01;;;;;;;3.70;0.88;;;23.50;99.90;;;;;;5035932;28;20036;-44
2022/06/29 09:17:30;;;;;;;2.72;0.75;;;23.60;99.90;;;;;;5018875;28;20450;-45
2022/06/29 09:19:56;;;;;;;2.63;0.68;;;23.60;99.90;;;;;;5035077;28;20069;-44
2022/06/29 09:22:22;;;;;;;2.17;0.90;;;23.70;99.90;;;;;;5037803;28;20033;-45
2022/06/29 09:24:49;;;;;;;2.85;0.77;;;23.80;99.90;;;;;;5014512;28;20034;-44
2022/06/29 09:27:15;;;;;;;3.60;0.85;;;23.90;99.90;;;;;;5038885;28;20045;-43
2022/06/29 09:29:42;;;;;;;2.50;0.80;;;23.90;99.90;;;;;;5031348;28;20041;-47
2022/06/29 09:32:18;;;;;;;2.42;0.65;;;24.00;99.90;;;;;;5037128;28;20040;-44
2022/06/29 09:34:52;;;;;;;2.17;0.73;;;24.00;99.90;;;;;;5041165;28;20057;-45
2022/06/29 09:37:20;;;;;;;5.28;0.90;;;24.10;99.90;;;;;;5036819;28;20037;-43
2022/06/29 09:39:51;;;;;;;3.85;0.90;;;24.20;99.90;;;;;;5036467;28;20493;-44
2022/06/29 09:42:17;;;;;;;2.97;0.80;;;24.30;99.90;;;;;;5037937;28;20065;-43
2022/06/29 09:44:44;;;;;;;3.78;0.90;;;24.30;99.90;;;;;;5033719;28;20132;-43
2022/06/29 09:47:16;;;;;;;3.35;0.70;;;24.40;99.90;;;;;;5037383;28;20395;-45
2022/06/29 09:49:48;;;;;;;2.40;0.60;;;24.50;99.90;;;;;;5036836;28;20053;-43
2022/06/29 09:52:17;;;;;;;3.95;0.73;;;24.60;99.90;;;;;;5035726;28;20045;-43
2022/06/29 09:54:54;;;;;;;2.03;0.63;;;24.70;99.90;;;;;;5037552;28;20041;-43
2022/06/29 09:57:22;;;;;;;2.60;0.70;;;24.70;99.90;;;;;;5034670;28;20041;-43
2022/06/29 10:02:57;;;;;;;2.83;0.50;;;24.90;99.90;;;;;;5032811;28;20044;-43
2022/06/29 10:08:32;;;;;;;5.50;0.50;;;25.10;99.90;;;;;;5037974;28;20064;-43
2022/06/29 10:13:39;;;;;;;6.22;0.70;;;25.10;99.90;;;;;;5036764;28;20367;-43
2022/06/29 10:14:00;;;;;;;4.68;0.50;;;25.20;99.90;;;;;;5034435;28;20053;-43
2022/06/29 10:16:35;;;;;;;4.50;0.50;;;25.30;99.90;;;;;;5035736;28;21151;-44
2022/06/29 10:19:21;;;;;;;1.52;0.60;;;25.30;99.90;;;;;;5037750;28;20514;-43
2022/06/29 10:21:46;;;;;;;3.45;0.50;;;25.40;99.90;;;;;;5033952;28;20044;-43
2022/06/29 10:24:15;;;;;;;2.22;0.50;;;25.50;99.90;;;;;;5036758;28;20041;-43
2022/06/29 10:26:43;;;;;;;3.30;0.70;;;25.50;99.90;;;;;;5035182;28;20041;-43
2022/06/29 10:29:09;;;;;;;3.95;0.50;;;25.60;99.90;;;;;;5032234;28;20080;-43
2022/06/29 10:32:02;;;;;;;2.13;0.50;;;25.60;99.90;;;;;;5038901;28;20193;-43
2022/06/29 10:34:31;;;;;;;2.17;0.50;;;25.70;99.90;;;;;;5034632;28;20357;-43
2022/06/29 10:37:02;;;;;;;3.20;0.55;;;25.80;99.90;;;;;;5036910;28;20061;-43
2022/06/29 10:39:49;;;;;;;2.05;0.40;;;25.80;99.90;;;;;;5037026;28;20041;-45
2022/06/29 10:45:12;;;;;;;2.88;0.43;;;26.00;99.90;;;;;;5036902;28;20103;-44
2022/06/29 10:47:38;;;;;;;2.42;0.40;;;26.00;99.90;;;;;;5038774;28;20053;-43
2022/06/29 10:50:25;;;;;;;1.50;0.50;;;26.10;99.90;;;;;;5038476;28;20061;-44
2022/06/29 10:53:01;;;;;;;2.83;0.57;;;26.20;99.90;;;;;;5040064;28;20044;-49
2022/06/29 10:55:28;;;;;;;1.25;0.40;;;26.20;99.90;;;;;;5036724;28;20042;-47
2022/06/29 10:57:55;;;;;;;2.13;0.40;;;26.30;99.90;;;;;;5042720;28;20037;-45
2022/06/29 11:00:29;;;;;;;2.35;0.40;;;26.30;99.90;;;;;;5040118;28;20042;-44
2022/06/29 11:02:55;;;;;;;2.28;0.40;;;26.40;99.90;;;;;;5035614;28;20434;-44
2022/06/29 11:05:21;;;;;;;0.85;0.40;;;26.40;99.90;;;;;;5037922;28;20041;-46
2022/06/29 11:13:29;;;;;;;1.23;0.40;;;26.70;99.90;;;;;;5041516;28;20049;-45
2022/06/29 11:15:57;;;;;;;1.55;0.40;;;26.70;99.90;;;;;;5040386;28;20045;-43
2022/06/29 11:18:27;;;;;;;2.40;0.40;;;26.80;99.90;;;;;;5020236;28;20033;-44
2022/06/29 11:20:53;;;;;;;1.60;0.40;;;26.90;99.90;;;;;;5039330;28;20052;-45
2022/06/29 11:23:24;;;;;;;1.38;0.40;;;27.00;99.90;;;;;;5037103;28;20065;-45
2022/06/29 11:25:54;;;;;;;2.20;0.52;;;27.10;99.90;;;;;;5037568;28;20144;-43
2022/06/29 11:28:28;;;;;;;2.78;0.40;;;27.10;99.90;;;;;;5035619;28;20465;-47
2022/06/29 11:31:13;;;;;;;1.58;0.32;;;27.20;99.90;;;;;;5045527;28;20057;-43
2022/06/29 11:33:43;;;;;;;0.80;0.30;;;27.30;99.90;;;;;;5038310;28;20046;-43
2022/06/29 11:36:12;;;;;;;2.50;0.50;;;27.40;97.90;;;;;;5027973;28;20049;-44
2022/06/29 11:38:46;;;;;;;1.27;0.32;;;27.40;97.10;;;;;;5037365;28;20047;-45
2022/06/29 11:41:26;;;;;;;1.02;0.50;;;27.50;97.10;;;;;;5037522;28;20125;-45
2022/06/29 11:44:03;;;;;;;0.85;0.30;;;27.50;95.90;;;;;;5035385;28;20095;-43
2022/06/29 11:46:31;;;;;;;3.20;0.50;;;27.60;96.30;;;;;;5036747;28;20045;-43
2022/06/29 11:51:58;;;;;;;1.02;0.55;;;27.70;96.20;;;;;;5035581;28;20434;-47
2022/06/29 11:54:48;;;;;;;7.38;0.60;;;27.70;96.00;;;;;;5035558;28;20120;-43
2022/06/29 11:57:17;;;;;;;2.10;0.50;;;27.80;96.80;;;;;;5036202;28;20048;-44
2022/06/29 11:59:44;;;;;;;1.65;0.40;;;27.80;96.10;;;;;;5036732;28;20065;-47
2022/06/29 12:02:15;;;;;;;2.83;0.50;;;27.80;94.70;;;;;;5047361;28;20053;-48
2022/06/29 12:04:43;;;;;;;1.92;0.50;;;27.90;94.40;;;;;;5034155;28;20047;-44
2022/06/29 12:07:10;;;;;;;2.17;0.47;;;27.90;94.20;;;;;;5034535;28;20052;-47
2022/06/29 12:09:37;;;;;;;1.00;0.50;;;28.00;93.80;;;;;;5035839;28;20048;-44
2022/06/29 12:12:05;;;;;;;1.42;0.40;;;28.00;93.30;;;;;;5034766;28;20119;-43
2022/06/29 12:14:31;;;;;;;2.38;0.35;;;28.00;93.10;;;;;;5018705;28;20041;-44
2022/06/29 12:16:56;;;;;;;1.77;0.50;;;28.10;92.50;;;;;;5037190;28;20037;-44
2022/06/29 12:19:22;;;;;;;1.63;0.60;;;28.10;91.20;;;;;;5034582;28;20107;-45
2022/06/29 12:21:48;;;;;;;1.67;0.40;;;28.10;90.70;;;;;;5035346;28;20048;-43
2022/06/29 12:24:16;;;;;;;2.65;0.50;;;28.20;90.80;;;;;;5034415;28;20041;-47
2022/06/29 12:26:42;;;;;;;1.25;0.30;;;28.20;86.80;;;;;;5038750;28;20136;-44
2022/06/29 12:29:08;;;;;;;1.25;0.40;;;28.20;86.70;;;;;;5035158;28;20045;-45
2022/06/29 12:31:36;;;;;;;1.30;0.40;;;28.30;86.30;;;;;;5033169;28;20087;-44
2022/06/29 12:34:03;;;;;;;3.13;0.50;;;28.30;86.20;;;;;;5037121;28;20542;-44
2022/06/29 12:36:29;;;;;;;1.70;0.32;;;28.30;87.00;;;;;;5033701;28;21281;-48
2022/06/29 12:38:55;;;;;;;4.43;0.60;;;28.30;86.80;;;;;;5035906;28;20507;-44
2022/06/29 12:41:20;;;;;;;13.00;1.48;;;28.30;87.40;;;;;;5037091;28;20040;-47
2022/06/29 12:43:46;;;;;;;3.13;0.45;;;28.30;87.30;;;;;;5036074;28;20482;-45
2022/06/29 12:46:12;;;;;;;3.17;0.50;;;28.40;87.00;;;;;;5030360;28;20045;-44
2022/06/29 12:48:37;;;;;;;1.33;0.50;;;28.40;87.10;;;;;;5038209;28;20041;-45
2022/06/29 12:51:03;;;;;;;5.25;0.82;;;28.40;86.20;;;;;;5034264;28;20057;-43
2022/06/29 12:53:29;;;;;;;3.38;0.45;;;28.50;87.90;;;;;;5037472;28;20387;-45
2022/06/29 12:55:54;;;;;;;3.13;0.60;;;28.40;90.00;;;;;;5033982;28;20042;-48
2022/06/29 12:58:20;;;;;;;5.82;0.73;;;28.50;90.30;;;;;;5034551;28;20037;-48
2022/06/29 13:00:46;;;;;;;4.97;0.75;;;28.50;87.50;;;;;;5029214;28;20065;-44
2022/06/29 13:03:12;;;;;;;27.70;2.25;;;28.60;88.50;;;;;;5029035;28;20044;-45
2022/06/29 13:05:38;;;;;;;16.45;1.58;;;28.50;87.90;;;;;;5009737;28;20128;-48
2022/06/29 13:08:03;;;;;;;45.50;5.10;;;28.50;86.60;;;;;;5026591;28;20045;-46
2022/06/29 13:10:31;;;;;;;17.77;2.00;;;28.60;84.90;;;;;;5027858;28;20434;-45